TimeCST,TemperatureF,Dew PointF,Humidity,Sea Level PressureIn,VisibilityMPH,Wind Direction,Wind SpeedMPH,Gust SpeedMPH,PrecipitationIn,Events,Conditions,WindDirDegrees,DateUTC
12:15 AM,18.9,14.7,84,30.23,10.0,Calm,Calm,-,N/A,,Clear,0,2013-01-02 06:15:00
12:35 AM,18.5,14.4,84,30.24,10.0,Calm,Calm,-,N/A,,Clear,0,2013-01-02 06:35:00
12:55 AM,18.1,14.0,84,30.24,10.0,Calm,Calm,-,N/A,,Clear,0,2013-01-02 06:55:00
1:15 AM,18.5,14.2,83,30.24,10.0,Calm,Calm,-,N/A,,Clear,0,2013-01-02 07:15:00
1:35 AM,18.0,14.0,84,30.24,10.0,Calm,Calm,-,N/A,,Clear,0,2013-01-02 07:35:00
1:55 AM,17.4,13.5,84,30.25,10.0,Calm,Calm,-,N/A,,Clear,0,2013-01-02 07:55:00
2:15 AM,16.3,12.9,86,30.27,10.0,Calm,Calm,-,N/A,,Clear,0,2013-01-02 08:15:00
2:35 AM,16.5,12.6,84,30.26,10.0,Calm,Calm,-,N/A,,Clear,0,2013-01-02 08:35:00
2:55 AM,16.2,12.2,84,30.25,10.0,Calm,Calm,-,N/A,,Clear,0,2013-01-02 08:55:00
3:15 AM,16.0,12.0,84,30.26,10.0,Calm,Calm,-,N/A,,Clear,0,2013-01-02 09:15:00
3:35 AM,15.4,11.7,85,30.25,10.0,Calm,Calm,-,N/A,,Clear,0,2013-01-02 09:35:00
3:55 AM,13.6,10.4,87,30.25,10.0,Calm,Calm,-,N/A,,Clear,0,2013-01-02 09:55:00
4:15 AM,13.8,10.6,87,30.24,10.0,Calm,Calm,-,N/A,,Clear,0,2013-01-02 10:15:00
4:35 AM,12.9,9.7,87,30.25,10.0,Calm,Calm,-,N/A,,Clear,0,2013-01-02 10:35:00
4:55 AM,13.1,10.2,88,30.24,10.0,Calm,Calm,-,N/A,,Clear,0,2013-01-02 10:55:00
5:15 AM,12.0,9.1,88,30.26,10.0,Calm,Calm,-,N/A,,Clear,0,2013-01-02 11:15:00
5:35 AM,14.0,11.1,88,30.25,10.0,Calm,Calm,-,N/A,,Clear,0,2013-01-02 11:35:00
5:55 AM,13.1,10.4,89,30.26,10.0,Calm,Calm,-,N/A,,Clear,0,2013-01-02 11:55:00
6:15 AM,10.6,8.2,90,30.27,7.0,Calm,Calm,-,N/A,,Clear,0,2013-01-02 12:15:00
6:35 AM,11.7,9.7,92,30.27,7.0,Calm,Calm,-,N/A,,Clear,0,2013-01-02 12:35:00
6:55 AM,10.2,8.4,92,30.29,7.0,Calm,Calm,-,N/A,,Clear,0,2013-01-02 12:55:00
7:15 AM,9.5,8.1,94,30.29,7.0,Calm,Calm,-,N/A,,Clear,0,2013-01-02 13:15:00
7:35 AM,11.5,9.7,92,30.29,7.0,Calm,Calm,-,N/A,,Clear,0,2013-01-02 13:35:00
7:55 AM,12.7,10.8,92,30.28,7.0,Calm,Calm,-,N/A,,Clear,0,2013-01-02 13:55:00
8:15 AM,13.8,11.8,92,30.30,7.0,Calm,Calm,-,N/A,,Clear,0,2013-01-02 14:15:00
8:35 AM,16.0,12.9,88,30.30,7.0,Calm,Calm,-,N/A,,Clear,0,2013-01-02 14:35:00
9:15 AM,19.2,13.8,80,30.31,7.0,Calm,Calm,-,N/A,,Clear,0,2013-01-02 15:15:00
9:35 AM,20.8,13.5,73,30.31,10.0,Calm,Calm,-,N/A,,Clear,0,2013-01-02 15:35:00
9:55 AM,19.6,12.9,75,30.31,10.0,Calm,Calm,-,N/A,,Clear,0,2013-01-02 15:55:00
10:15 AM,19.4,13.1,76,30.31,10.0,Calm,Calm,-,N/A,,Clear,0,2013-01-02 16:15:00
10:35 AM,19.8,13.3,76,30.30,10.0,Calm,Calm,-,N/A,,Clear,0,2013-01-02 16:35:00
10:55 AM,21.4,14.0,73,30.29,10.0,Calm,Calm,-,N/A,,Clear,0,2013-01-02 16:55:00
11:15 AM,21.9,14.0,72,30.29,7.0,Calm,Calm,-,N/A,,Clear,0,2013-01-02 17:15:00
11:35 AM,22.8,14.5,71,30.29,10.0,Calm,Calm,-,N/A,,Clear,0,2013-01-02 17:35:00
11:55 AM,24.4,14.9,67,30.27,10.0,Calm,Calm,-,N/A,,Clear,0,2013-01-02 17:55:00
12:15 PM,24.3,14.9,68,30.27,10.0,Calm,Calm,-,N/A,,Clear,0,2013-01-02 18:15:00
12:35 PM,26.4,12.0,55,30.25,10.0,Calm,Calm,-,N/A,,Clear,0,2013-01-02 18:35:00
12:55 PM,27.7,10.9,50,30.25,10.0,Calm,Calm,-,N/A,,Clear,0,2013-01-02 18:55:00
1:15 PM,26.4,11.3,53,30.24,10.0,Calm,Calm,-,N/A,,Clear,0,2013-01-02 19:15:00
1:35 PM,27.3,11.3,51,30.23,10.0,Calm,Calm,-,N/A,,Clear,0,2013-01-02 19:35:00
1:55 PM,29.5,11.8,48,30.23,10.0,Calm,Calm,-,N/A,,Clear,0,2013-01-02 19:55:00
2:15 PM,30.6,11.7,45,30.22,10.0,Calm,Calm,-,N/A,,Clear,0,2013-01-02 20:15:00
2:35 PM,30.7,10.9,44,30.23,10.0,Calm,Calm,-,N/A,,Clear,0,2013-01-02 20:35:00
2:55 PM,30.0,10.4,44,30.23,10.0,Calm,Calm,-,N/A,,Clear,0,2013-01-02 20:55:00
3:15 PM,27.1,13.3,56,30.24,10.0,Calm,Calm,-,N/A,,Clear,0,2013-01-02 21:15:00
3:35 PM,27.5,14.0,57,30.24,10.0,Calm,Calm,-,N/A,,Clear,0,2013-01-02 21:35:00
3:55 PM,25.9,15.3,64,30.25,10.0,NW,4.6,-,N/A,,Clear,310,2013-01-02 21:55:00
4:15 PM,25.0,16.0,69,30.25,10.0,NNW,3.5,-,N/A,,Clear,340,2013-01-02 22:15:00
4:35 PM,24.8,15.4,68,30.24,10.0,Calm,Calm,-,N/A,,Clear,0,2013-01-02 22:35:00
4:55 PM,22.6,16.5,77,30.25,10.0,NNE,3.5,-,N/A,,Clear,20,2013-01-02 22:55:00
5:15 PM,21.9,16.3,79,30.25,10.0,North,3.5,-,N/A,,Clear,10,2013-01-02 23:15:00
5:35 PM,21.9,15.4,76,30.26,10.0,North,4.6,-,N/A,,Clear,10,2013-01-02 23:35:00
5:55 PM,21.7,14.9,75,30.25,10.0,NNE,3.5,-,N/A,,Clear,30,2013-01-02 23:55:00
6:15 PM,19.4,14.2,80,30.26,10.0,Calm,Calm,-,N/A,,Clear,0,2013-01-03 00:15:00
6:35 PM,19.6,15.1,83,30.27,10.0,Calm,Calm,-,N/A,,Clear,0,2013-01-03 00:35:00
6:55 PM,19.9,14.9,81,30.26,10.0,ESE,3.5,-,N/A,,Clear,120,2013-01-03 00:55:00
7:15 PM,19.8,15.8,85,30.26,10.0,Calm,Calm,-,N/A,,Clear,0,2013-01-03 01:15:00
7:35 PM,19.2,14.9,83,30.26,10.0,Calm,Calm,-,N/A,,Clear,0,2013-01-03 01:35:00
7:55 PM,17.6,14.9,89,30.25,10.0,Calm,Calm,-,N/A,,Clear,0,2013-01-03 01:55:00
8:15 PM,18.3,15.6,89,30.26,10.0,Calm,Calm,-,N/A,,Clear,0,2013-01-03 02:15:00
8:35 PM,18.1,14.2,84,30.26,10.0,Calm,Calm,-,N/A,,Clear,0,2013-01-03 02:35:00
8:55 PM,17.2,12.7,83,30.26,10.0,Calm,Calm,-,N/A,,Clear,0,2013-01-03 02:55:00
9:15 PM,17.6,13.3,83,30.26,10.0,Calm,Calm,-,N/A,,Clear,0,2013-01-03 03:15:00
9:35 PM,18.1,13.6,83,30.26,10.0,Calm,Calm,-,N/A,,Clear,0,2013-01-03 03:35:00
9:55 PM,16.3,13.6,89,30.27,10.0,Calm,Calm,-,N/A,,Clear,0,2013-01-03 03:55:00
10:15 PM,16.5,14.0,90,30.27,10.0,Calm,Calm,-,N/A,,Clear,0,2013-01-03 04:15:00
10:35 PM,14.4,12.2,91,30.27,10.0,Calm,Calm,-,N/A,,Clear,0,2013-01-03 04:35:00
10:55 PM,14.2,12.2,92,30.27,7.0,Calm,Calm,-,N/A,,Clear,0,2013-01-03 04:55:00
11:15 PM,13.8,12.0,93,30.27,5.0,Calm,Calm,-,N/A,,Clear,0,2013-01-03 05:15:00
11:35 PM,14.0,12.6,94,30.26,5.0,Calm,Calm,-,N/A,,Clear,0,2013-01-03 05:35:00
11:55 PM,12.2,10.8,94,30.26,7.0,Calm,Calm,-,N/A,,Clear,0,2013-01-03 05:55:00